sensor_id;sensor_type;location;lat;lon;timestamp;temperature;humidity
19654;DHT22;9975;48.046;7.804;2023-09-30T01:56:34;15.60;99.90
19654;DHT22;9975;48.046;7.804;2023-09-30T01:59:00;15.70;99.90
19654;DHT22;9975;48.046;7.804;2023-09-30T02:01:26;15.70;99.90
19654;DHT22;9975;48.046;7.804;2023-09-30T02:03:51;15.70;99.90
19654;DHT22;9975;48.046;7.804;2023-09-30T02:06:17;15.60;99.90
19654;DHT22;9975;48.046;7.804;2023-09-30T02:08:43;15.50;99.90
19654;DHT22;9975;48.046;7.804;2023-09-30T02:11:10;15.50;99.90
19654;DHT22;9975;48.046;7.804;2023-09-30T02:13:36;15.50;99.90
19654;DHT22;9975;48.046;7.804;2023-09-30T02:16:01;15.60;99.90
19654;DHT22;9975;48.046;7.804;2023-09-30T02:18:27;15.60;99.90
19654;DHT22;9975;48.046;7.804;2023-09-30T02:20:53;15.60;99.90
19654;DHT22;9975;48.046;7.804;2023-09-30T02:23:19;15.60;99.90
19654;DHT22;9975;48.046;7.804;2023-09-30T02:25:47;15.50;99.90
19654;DHT22;9975;48.046;7.804;2023-09-30T02:28:13;15.50;99.90
19654;DHT22;9975;48.046;7.804;2023-09-30T02:30:39;15.50;99.90
19654;DHT22;9975;48.046;7.804;2023-09-30T02:33:05;15.50;99.90
19654;DHT22;9975;48.046;7.804;2023-09-30T02:35:32;15.50;99.90
19654;DHT22;9975;48.046;7.804;2023-09-30T02:37:57;15.60;99.90
19654;DHT22;9975;48.046;7.804;2023-09-30T02:40:24;15.50;99.90
19654;DHT22;9975;48.046;7.804;2023-09-30T02:42:52;15.50;99.90
19654;DHT22;9975;48.046;7.804;2023-09-30T02:45:18;15.40;99.90
19654;DHT22;9975;48.046;7.804;2023-09-30T02:47:44;15.30;99.90
19654;DHT22;9975;48.046;7.804;2023-09-30T02:50:10;15.20;99.90
19654;DHT22;9975;48.046;7.804;2023-09-30T02:52:40;15.20;99.90
19654;DHT22;9975;48.046;7.804;2023-09-30T02:55:11;15.20;99.90
19654;DHT22;9975;48.046;7.804;2023-09-30T02:57:38;15.20;99.90
19654;DHT22;9975;48.046;7.804;2023-09-30T03:00:05;15.20;99.90
19654;DHT22;9975;48.046;7.804;2023-09-30T03:02:55;15.20;99.90
19654;DHT22;9975;48.046;7.804;2023-09-30T03:05:22;15.20;99.90
19654;DHT22;9975;48.046;7.804;2023-09-30T03:07:49;15.10;99.90
19654;DHT22;9975;48.046;7.804;2023-09-30T03:10:16;15.10;99.90
19654;DHT22;9975;48.046;7.804;2023-09-30T03:12:52;15.00;99.90
19654;DHT22;9975;48.046;7.804;2023-09-30T03:15:18;15.10;99.90
19654;DHT22;9975;48.046;7.804;2023-09-30T03:17:44;15.10;99.90
19654;DHT22;9975;48.046;7.804;2023-09-30T03:20:10;15.10;99.90
19654;DHT22;9975;48.046;7.804;2023-09-30T03:22:40;15.00;99.90
19654;DHT22;9975;48.046;7.804;2023-09-30T03:25:09;15.00;99.90
19654;DHT22;9975;48.046;7.804;2023-09-30T03:27:37;14.90;99.90
19654;DHT22;9975;48.046;7.804;2023-09-30T03:30:04;14.90;99.90
19654;DHT22;9975;48.046;7.804;2023-09-30T03:32:31;14.80;99.90
19654;DHT22;9975;48.046;7.804;2023-09-30T03:34:59;14.80;99.90
19654;DHT22;9975;48.046;7.804;2023-09-30T03:37:26;14.70;99.90
19654;DHT22;9975;48.046;7.804;2023-09-30T03:39:56;14.70;99.90
19654;DHT22;9975;48.046;7.804;2023-09-30T03:42:22;14.70;99.90
19654;DHT22;9975;48.046;7.804;2023-09-30T03:44:48;14.60;99.90
19654;DHT22;9975;48.046;7.804;2023-09-30T03:47:16;14.50;99.90
19654;DHT22;9975;48.046;7.804;2023-09-30T03:49:43;14.50;99.90
19654;DHT22;9975;48.046;7.804;2023-09-30T03:52:11;14.40;99.90
19654;DHT22;9975;48.046;7.804;2023-09-30T03:54:37;14.30;99.90
19654;DHT22;9975;48.046;7.804;2023-09-30T03:57:03;14.30;99.90
19654;DHT22;9975;48.046;7.804;2023-09-30T03:59:29;14.20;99.90
19654;DHT22;9975;48.046;7.804;2023-09-30T04:01:56;14.20;99.90
19654;DHT22;9975;48.046;7.804;2023-09-30T04:04:23;14.10;99.90
19654;DHT22;9975;48.046;7.804;2023-09-30T04:06:49;14.10;99.90
19654;DHT22;9975;48.046;7.804;2023-09-30T04:09:17;14.10;99.90
19654;DHT22;9975;48.046;7.804;2023-09-30T04:11:42;14.10;99.90
19654;DHT22;9975;48.046;7.804;2023-09-30T04:14:09;14.10;99.90
19654;DHT22;9975;48.046;7.804;2023-09-30T04:16:35;14.20;99.90
19654;DHT22;9975;48.046;7.804;2023-09-30T04:19:02;14.10;99.90
19654;DHT22;9975;48.046;7.804;2023-09-30T04:21:28;14.00;99.90
19654;DHT22;9975;48.046;7.804;2023-09-30T04:23:55;14.00;99.90
19654;DHT22;9975;48.046;7.804;2023-09-30T04:26:22;13.90;99.90
19654;DHT22;9975;48.046;7.804;2023-09-30T04:28:47;13.90;99.90
19654;DHT22;9975;48.046;7.804;2023-09-30T04:31:13;13.90;99.90
19654;DHT22;9975;48.046;7.804;2023-09-30T04:33:39;13.80;99.90
19654;DHT22;9975;48.046;7.804;2023-09-30T04:36:06;13.80;99.90
19654;DHT22;9975;48.046;7.804;2023-09-30T04:38:35;13.70;99.90
19654;DHT22;9975;48.046;7.804;2023-09-30T04:41:04;13.70;99.90
19654;DHT22;9975;48.046;7.804;2023-09-30T04:43:33;13.70;99.90
19654;DHT22;9975;48.046;7.804;2023-09-30T04:45:58;13.70;99.90
19654;DHT22;9975;48.046;7.804;2023-09-30T04:48:24;13.70;99.90
19654;DHT22;9975;48.046;7.804;2023-09-30T04:50:50;13.60;99.90
19654;DHT22;9975;48.046;7.804;2023-09-30T04:53:20;13.50;99.90
19654;DHT22;9975;48.046;7.804;2023-09-30T04:55:46;13.50;99.90
19654;DHT22;9975;48.046;7.804;2023-09-30T04:58:14;13.50;99.90
19654;DHT22;9975;48.046;7.804;2023-09-30T05:00:40;13.50;99.90
19654;DHT22;9975;48.046;7.804;2023-09-30T05:03:06;13.40;99.90
19654;DHT22;9975;48.046;7.804;2023-09-30T05:05:32;13.40;99.90
19654;DHT22;9975;48.046;7.804;2023-09-30T05:07:58;13.40;99.90
19654;DHT22;9975;48.046;7.804;2023-09-30T05:10:25;13.40;99.90
19654;DHT22;9975;48.046;7.804;2023-09-30T05:12:51;13.50;99.90
19654;DHT22;9975;48.046;7.804;2023-09-30T05:15:20;13.50;99.90
19654;DHT22;9975;48.046;7.804;2023-09-30T05:17:46;13.50;99.90
19654;DHT22;9975;48.046;7.804;2023-09-30T05:20:13;13.40;99.90
19654;DHT22;9975;48.046;7.804;2023-09-30T05:22:42;13.40;99.90
19654;DHT22;9975;48.046;7.804;2023-09-30T05:25:14;13.40;99.90
19654;DHT22;9975;48.046;7.804;2023-09-30T05:27:41;13.40;99.90
19654;DHT22;9975;48.046;7.804;2023-09-30T05:30:08;13.30;99.90
19654;DHT22;9975;48.046;7.804;2023-09-30T05:32:33;13.30;99.90
19654;DHT22;9975;48.046;7.804;2023-09-30T05:35:05;13.30;99.90
19654;DHT22;9975;48.046;7.804;2023-09-30T05:37:31;13.40;99.90
19654;DHT22;9975;48.046;7.804;2023-09-30T05:39:57;13.40;99.90
19654;DHT22;9975;48.046;7.804;2023-09-30T05:42:23;13.40;99.90
19654;DHT22;9975;48.046;7.804;2023-09-30T05:44:48;13.40;99.90
19654;DHT22;9975;48.046;7.804;2023-09-30T05:47:14;13.40;99.90
19654;DHT22;9975;48.046;7.804;2023-09-30T05:49:41;13.40;99.90
19654;DHT22;9975;48.046;7.804;2023-09-30T05:52:07;13.40;99.90
19654;DHT22;9975;48.046;7.804;2023-09-30T05:54:32;13.30;99.90
19654;DHT22;9975;48.046;7.804;2023-09-30T05:56:58;13.30;99.90
19654;DHT22;9975;48.046;7.804;2023-09-30T05:59:26;13.20;99.90
19654;DHT22;9975;48.046;7.804;2023-09-30T06:01:53;13.20;99.90
19654;DHT22;9975;48.046;7.804;2023-09-30T06:04:19;13.20;99.90
19654;DHT22;9975;48.046;7.804;2023-09-30T06:06:45;13.20;99.90
19654;DHT22;9975;48.046;7.804;2023-09-30T06:09:10;13.20;99.90
19654;DHT22;9975;48.046;7.804;2023-09-30T06:11:36;13.20;99.90
19654;DHT22;9975;48.046;7.804;2023-09-30T06:14:02;13.20;99.90
19654;DHT22;9975;48.046;7.804;2023-09-30T06:16:28;13.30;99.90
19654;DHT22;9975;48.046;7.804;2023-09-30T06:18:54;13.40;99.90
19654;DHT22;9975;48.046;7.804;2023-09-30T06:21:21;13.40;99.90
19654;DHT22;9975;48.046;7.804;2023-09-30T06:23:50;13.40;99.90
19654;DHT22;9975;48.046;7.804;2023-09-30T06:26:19;13.40;99.90
19654;DHT22;9975;48.046;7.804;2023-09-30T06:28:46;13.40;99.90
19654;DHT22;9975;48.046;7.804;2023-09-30T06:31:13;13.40;99.90
19654;DHT22;9975;48.046;7.804;2023-09-30T06:33:39;13.40;99.90
19654;DHT22;9975;48.046;7.804;2023-09-30T06:36:10;13.50;99.90
19654;DHT22;9975;48.046;7.804;2023-09-30T06:38:36;13.50;99.90
19654;DHT22;9975;48.046;7.804;2023-09-30T06:41:02;13.50;99.90
19654;DHT22;9975;48.046;7.804;2023-09-30T06:43:28;13.50;99.90
19654;DHT22;9975;48.046;7.804;2023-09-30T06:45:53;13.60;99.90
19654;DHT22;9975;48.046;7.804;2023-09-30T06:48:21;13.70;99.90
19654;DHT22;9975;48.046;7.804;2023-09-30T06:50:48;13.70;99.90
19654;DHT22;9975;48.046;7.804;2023-09-30T06:53:15;13.80;99.90
19654;DHT22;9975;48.046;7.804;2023-09-30T06:55:42;14.00;99.90
19654;DHT22;9975;48.046;7.804;2023-09-30T06:58:09;13.90;99.90
19654;DHT22;9975;48.046;7.804;2023-09-30T07:00:36;14.00;99.90
19654;DHT22;9975;48.046;7.804;2023-09-30T07:03:02;14.10;99.90
19654;DHT22;9975;48.046;7.804;2023-09-30T07:05:29;14.00;99.90
19654;DHT22;9975;48.046;7.804;2023-09-30T07:07:55;14.10;99.90
19654;DHT22;9975;48.046;7.804;2023-09-30T07:10:20;14.20;99.90
19654;DHT22;9975;48.046;7.804;2023-09-30T07:12:46;14.20;99.90
19654;DHT22;9975;48.046;7.804;2023-09-30T07:15:12;14.20;99.90
19654;DHT22;9975;48.046;7.804;2023-09-30T07:17:39;14.20;99.90
19654;DHT22;9975;48.046;7.804;2023-09-30T07:20:06;14.30;99.90
19654;DHT22;9975;48.046;7.804;2023-09-30T07:22:32;14.40;99.90
19654;DHT22;9975;48.046;7.804;2023-09-30T07:24:57;14.40;99.90
19654;DHT22;9975;48.046;7.804;2023-09-30T07:27:26;14.50;99.90
19654;DHT22;9975;48.046;7.804;2023-09-30T07:29:52;14.60;99.90
19654;DHT22;9975;48.046;7.804;2023-09-30T07:32:18;14.70;99.90
19654;DHT22;9975;48.046;7.804;2023-09-30T07:34:43;14.80;99.90
19654;DHT22;9975;48.046;7.804;2023-09-30T07:37:09;14.90;99.90
19654;DHT22;9975;48.046;7.804;2023-09-30T07:39:35;14.90;99.90
19654;DHT22;9975;48.046;7.804;2023-09-30T07:42:01;15.00;99.90
19654;DHT22;9975;48.046;7.804;2023-09-30T07:44:27;15.10;99.90
19654;DHT22;9975;48.046;7.804;2023-09-30T07:46:52;15.10;99.90
19654;DHT22;9975;48.046;7.804;2023-09-30T07:49:18;15.20;99.90
19654;DHT22;9975;48.046;7.804;2023-09-30T07:51:44;15.20;99.90
19654;DHT22;9975;48.046;7.804;2023-09-30T07:54:11;15.30;99.90
19654;DHT22;9975;48.046;7.804;2023-09-30T07:56:37;15.50;99.90
19654;DHT22;9975;48.046;7.804;2023-09-30T07:59:04;15.50;99.90
19654;DHT22;9975;48.046;7.804;2023-09-30T08:01:31;15.60;99.90
19654;DHT22;9975;48.046;7.804;2023-09-30T08:03:56;15.70;99.90
19654;DHT22;9975;48.046;7.804;2023-09-30T08:06:22;15.90;99.90
19654;DHT22;9975;48.046;7.804;2023-09-30T08:08:48;15.90;99.90
19654;DHT22;9975;48.046;7.804;2023-09-30T08:11:15;16.00;99.90
19654;DHT22;9975;48.046;7.804;2023-09-30T08:13:40;16.10;99.90
19654;DHT22;9975;48.046;7.804;2023-09-30T08:16:06;16.20;99.90
19654;DHT22;9975;48.046;7.804;2023-09-30T08:18:32;16.20;99.90
19654;DHT22;9975;48.046;7.804;2023-09-30T08:20:58;16.30;99.90
19654;DHT22;9975;48.046;7.804;2023-09-30T08:23:23;16.50;99.90
19654;DHT22;9975;48.046;7.804;2023-09-30T08:25:49;16.70;99.90
19654;DHT22;9975;48.046;7.804;2023-09-30T08:28:15;16.80;99.90
19654;DHT22;9975;48.046;7.804;2023-09-30T08:30:40;16.90;99.90
19654;DHT22;9975;48.046;7.804;2023-09-30T08:33:06;17.00;99.90
19654;DHT22;9975;48.046;7.804;2023-09-30T08:35:36;17.00;99.90
19654;DHT22;9975;48.046;7.804;2023-09-30T08:38:03;17.10;99.90
19654;DHT22;9975;48.046;7.804;2023-09-30T08:40:29;17.20;99.90
19654;DHT22;9975;48.046;7.804;2023-09-30T08:42:55;17.30;99.90
19654;DHT22;9975;48.046;7.804;2023-09-30T08:45:20;17.50;99.90
19654;DHT22;9975;48.046;7.804;2023-09-30T08:47:46;17.60;99.90
19654;DHT22;9975;48.046;7.804;2023-09-30T08:50:12;17.60;99.90
19654;DHT22;9975;48.046;7.804;2023-09-30T08:52:40;17.70;99.90
19654;DHT22;9975;48.046;7.804;2023-09-30T08:55:12;17.70;99.90
19654;DHT22;9975;48.046;7.804;2023-09-30T08:57:42;17.80;99.90
19654;DHT22;9975;48.046;7.804;2023-09-30T09:00:12;17.90;99.90
19654;DHT22;9975;48.046;7.804;2023-09-30T09:02:41;18.00;99.90
19654;DHT22;9975;48.046;7.804;2023-09-30T09:05:07;18.00;99.90
19654;DHT22;9975;48.046;7.804;2023-09-30T09:07:35;18.20;99.90
19654;DHT22;9975;48.046;7.804;2023-09-30T09:10:05;18.40;99.90
19654;DHT22;9975;48.046;7.804;2023-09-30T09:12:33;18.40;99.90
19654;DHT22;9975;48.046;7.804;2023-09-30T09:14:59;18.60;99.90
19654;DHT22;9975;48.046;7.804;2023-09-30T09:17:42;18.70;99.90
19654;DHT22;9975;48.046;7.804;2023-09-30T09:20:10;18.60;99.90
19654;DHT22;9975;48.046;7.804;2023-09-30T09:22:43;18.80;99.90
19654;DHT22;9975;48.046;7.804;2023-09-30T09:25:10;19.00;99.90
19654;DHT22;9975;48.046;7.804;2023-09-30T09:27:36;19.10;99.90
19654;DHT22;9975;48.046;7.804;2023-09-30T09:33:07;19.40;99.90
19654;DHT22;9975;48.046;7.804;2023-09-30T09:35:34;19.70;99.90
19654;DHT22;9975;48.046;7.804;2023-09-30T09:38:06;19.70;99.90
19654;DHT22;9975;48.046;7.804;2023-09-30T09:40:36;19.80;99.90
19654;DHT22;9975;48.046;7.804;2023-09-30T09:43:04;20.10;99.90
19654;DHT22;9975;48.046;7.804;2023-09-30T09:45:35;20.30;99.90
19654;DHT22;9975;48.046;7.804;2023-09-30T09:48:01;20.40;99.90
19654;DHT22;9975;48.046;7.804;2023-09-30T09:50:27;20.80;99.90
19654;DHT22;9975;48.046;7.804;2023-09-30T09:52:53;21.00;99.90
19654;DHT22;9975;48.046;7.804;2023-09-30T09:55:23;21.20;99.90
19654;DHT22;9975;48.046;7.804;2023-09-30T09:57:49;21.40;99.90
19654;DHT22;9975;48.046;7.804;2023-09-30T10:00:20;21.30;99.90
19654;DHT22;9975;48.046;7.804;2023-09-30T10:02:47;21.50;99.90
19654;DHT22;9975;48.046;7.804;2023-09-30T10:05:14;21.70;99.90
19654;DHT22;9975;48.046;7.804;2023-09-30T10:08:16;21.70;99.00
19654;DHT22;9975;48.046;7.804;2023-09-30T10:10:44;21.80;97.60
19654;DHT22;9975;48.046;7.804;2023-09-30T10:24:44;23.00;95.20
19654;DHT22;9975;48.046;7.804;2023-09-30T10:40:51;23.90;88.40
19654;DHT22;9975;48.046;7.804;2023-09-30T10:43:37;24.00;86.20
19654;DHT22;9975;48.046;7.804;2023-09-30T10:46:09;24.20;84.40
19654;DHT22;9975;48.046;7.804;2023-09-30T10:48:50;24.10;82.60
19654;DHT22;9975;48.046;7.804;2023-09-30T10:51:21;23.90;82.50
19654;DHT22;9975;48.046;7.804;2023-09-30T10:53:54;24.10;78.40
19654;DHT22;9975;48.046;7.804;2023-09-30T10:56:22;24.10;79.40
19654;DHT22;9975;48.046;7.804;2023-09-30T10:58:50;24.30;79.50
19654;DHT22;9975;48.046;7.804;2023-09-30T11:01:18;24.60;78.20
19654;DHT22;9975;48.046;7.804;2023-09-30T11:03:45;25.00;77.40
19654;DHT22;9975;48.046;7.804;2023-09-30T11:06:15;25.20;71.40
19654;DHT22;9975;48.046;7.804;2023-09-30T11:08:46;25.00;70.00
19654;DHT22;9975;48.046;7.804;2023-09-30T11:11:16;25.00;67.70
19654;DHT22;9975;48.046;7.804;2023-09-30T11:13:41;25.30;67.60
19654;DHT22;9975;48.046;7.804;2023-09-30T11:16:07;25.60;67.80
19654;DHT22;9975;48.046;7.804;2023-09-30T11:18:34;25.70;65.90
19654;DHT22;9975;48.046;7.804;2023-09-30T11:21:09;25.90;64.10
19654;DHT22;9975;48.046;7.804;2023-09-30T11:23:36;26.20;63.70
19654;DHT22;9975;48.046;7.804;2023-09-30T11:26:03;26.10;59.20
19654;DHT22;9975;48.046;7.804;2023-09-30T11:28:44;25.90;59.60
19654;DHT22;9975;48.046;7.804;2023-09-30T11:31:11;26.10;56.00
19654;DHT22;9975;48.046;7.804;2023-09-30T11:33:51;26.20;57.30
19654;DHT22;9975;48.046;7.804;2023-09-30T11:36:19;26.50;55.10
19654;DHT22;9975;48.046;7.804;2023-09-30T11:38:47;26.80;53.90
19654;DHT22;9975;48.046;7.804;2023-09-30T11:41:13;26.70;49.40
19654;DHT22;9975;48.046;7.804;2023-09-30T11:43:45;26.90;51.70
19654;DHT22;9975;48.046;7.804;2023-09-30T11:46:23;27.00;50.90
19654;DHT22;9975;48.046;7.804;2023-09-30T11:49:03;27.20;48.10
19654;DHT22;9975;48.046;7.804;2023-09-30T11:51:30;27.40;47.30
19654;DHT22;9975;48.046;7.804;2023-09-30T11:53:57;27.60;43.90
19654;DHT22;9975;48.046;7.804;2023-09-30T11:56:25;27.40;43.40
19654;DHT22;9975;48.046;7.804;2023-09-30T11:58:56;27.40;42.80
19654;DHT22;9975;48.046;7.804;2023-09-30T12:01:22;27.30;41.00
19654;DHT22;9975;48.046;7.804;2023-09-30T12:03:50;27.10;41.80
19654;DHT22;9975;48.046;7.804;2023-09-30T12:06:17;26.60;40.30
19654;DHT22;9975;48.046;7.804;2023-09-30T12:08:43;26.10;40.50
19654;DHT22;9975;48.046;7.804;2023-09-30T12:11:09;25.80;39.90
19654;DHT22;9975;48.046;7.804;2023-09-30T12:13:38;25.80;39.60
19654;DHT22;9975;48.046;7.804;2023-09-30T12:16:04;26.10;41.40
19654;DHT22;9975;48.046;7.804;2023-09-30T12:18:30;26.10;38.70
19654;DHT22;9975;48.046;7.804;2023-09-30T12:20:56;26.30;38.40
19654;DHT22;9975;48.046;7.804;2023-09-30T12:23:21;26.40;36.70
19654;DHT22;9975;48.046;7.804;2023-09-30T12:25:48;25.90;36.00
19654;DHT22;9975;48.046;7.804;2023-09-30T12:28:14;25.60;35.10
19654;DHT22;9975;48.046;7.804;2023-09-30T12:30:40;25.40;35.80
19654;DHT22;9975;48.046;7.804;2023-09-30T12:33:07;25.70;35.60
19654;DHT22;9975;48.046;7.804;2023-09-30T12:35:33;25.50;36.70
19654;DHT22;9975;48.046;7.804;2023-09-30T12:37:59;25.80;34.90
19654;DHT22;9975;48.046;7.804;2023-09-30T12:40:25;26.10;36.40
19654;DHT22;9975;48.046;7.804;2023-09-30T12:42:50;25.80;34.60
19654;DHT22;9975;48.046;7.804;2023-09-30T12:45:16;25.70;35.00
19654;DHT22;9975;48.046;7.804;2023-09-30T12:47:43;25.30;35.00
19654;DHT22;9975;48.046;7.804;2023-09-30T12:50:09;25.50;35.20
19654;DHT22;9975;48.046;7.804;2023-09-30T12:52:35;25.80;35.70
19654;DHT22;9975;48.046;7.804;2023-09-30T12:55:01;26.00;35.90
19654;DHT22;9975;48.046;7.804;2023-09-30T12:57:27;26.20;36.60
19654;DHT22;9975;48.046;7.804;2023-09-30T12:59:53;26.30;35.30
19654;DHT22;9975;48.046;7.804;2023-09-30T13:02:19;26.30;35.70
19654;DHT22;9975;48.046;7.804;2023-09-30T13:04:46;26.30;36.10
19654;DHT22;9975;48.046;7.804;2023-09-30T13:07:12;26.90;36.80
19654;DHT22;9975;48.046;7.804;2023-09-30T13:09:38;26.90;34.90
19654;DHT22;9975;48.046;7.804;2023-09-30T13:12:05;27.10;35.20
19654;DHT22;9975;48.046;7.804;2023-09-30T13:14:31;27.50;36.20
19654;DHT22;9975;48.046;7.804;2023-09-30T13:16:56;27.70;32.40
19654;DHT22;9975;48.046;7.804;2023-09-30T13:19:22;27.00;33.50
19654;DHT22;9975;48.046;7.804;2023-09-30T13:21:51;26.80;34.70
19654;DHT22;9975;48.046;7.804;2023-09-30T13:24:19;26.30;35.70
19654;DHT22;9975;48.046;7.804;2023-09-30T13:26:45;26.50;36.30
19654;DHT22;9975;48.046;7.804;2023-09-30T13:29:11;26.60;35.30
19654;DHT22;9975;48.046;7.804;2023-09-30T13:31:38;26.60;34.80
19654;DHT22;9975;48.046;7.804;2023-09-30T13:34:05;26.50;35.00
19654;DHT22;9975;48.046;7.804;2023-09-30T13:36:31;26.50;34.40
19654;DHT22;9975;48.046;7.804;2023-09-30T13:38:56;26.10;34.00
19654;DHT22;9975;48.046;7.804;2023-09-30T13:41:22;25.70;35.30
19654;DHT22;9975;48.046;7.804;2023-09-30T13:43:48;25.70;35.60
19654;DHT22;9975;48.046;7.804;2023-09-30T13:46:13;25.80;36.10
19654;DHT22;9975;48.046;7.804;2023-09-30T13:48:39;25.70;35.70
19654;DHT22;9975;48.046;7.804;2023-09-30T13:51:06;25.80;36.20
19654;DHT22;9975;48.046;7.804;2023-09-30T13:53:32;25.40;36.40
19654;DHT22;9975;48.046;7.804;2023-09-30T13:55:58;25.80;37.60
19654;DHT22;9975;48.046;7.804;2023-09-30T13:58:23;26.10;35.60
19654;DHT22;9975;48.046;7.804;2023-09-30T14:00:50;26.20;34.60
19654;DHT22;9975;48.046;7.804;2023-09-30T14:03:19;26.30;34.70
19654;DHT22;9975;48.046;7.804;2023-09-30T14:05:45;26.30;34.60
19654;DHT22;9975;48.046;7.804;2023-09-30T14:08:12;26.30;33.70
19654;DHT22;9975;48.046;7.804;2023-09-30T14:10:37;26.40;34.80
19654;DHT22;9975;48.046;7.804;2023-09-30T14:13:03;26.10;33.40
19654;DHT22;9975;48.046;7.804;2023-09-30T14:15:29;26.30;36.00
19654;DHT22;9975;48.046;7.804;2023-09-30T14:17:57;26.60;34.50
19654;DHT22;9975;48.046;7.804;2023-09-30T14:20:24;26.80;34.10
19654;DHT22;9975;48.046;7.804;2023-09-30T14:22:51;26.90;35.00
19654;DHT22;9975;48.046;7.804;2023-09-30T14:25:22;27.00;33.50
19654;DHT22;9975;48.046;7.804;2023-09-30T14:27:48;26.90;33.50
19654;DHT22;9975;48.046;7.804;2023-09-30T14:30:15;27.10;32.50
19654;DHT22;9975;48.046;7.804;2023-09-30T14:32:41;27.20;33.30
19654;DHT22;9975;48.046;7.804;2023-09-30T14:35:07;27.10;32.60
19654;DHT22;9975;48.046;7.804;2023-09-30T14:37:37;27.10;32.20
19654;DHT22;9975;48.046;7.804;2023-09-30T14:40:03;27.20;31.90
19654;DHT22;9975;48.046;7.804;2023-09-30T14:42:39;26.80;31.20
19654;DHT22;9975;48.046;7.804;2023-09-30T14:45:05;26.90;31.70
19654;DHT22;9975;48.046;7.804;2023-09-30T14:47:30;26.70;30.80
19654;DHT22;9975;48.046;7.804;2023-09-30T14:49:56;26.80;31.60
19654;DHT22;9975;48.046;7.804;2023-09-30T14:52:22;26.70;32.00
19654;DHT22;9975;48.046;7.804;2023-09-30T14:54:47;26.80;32.10
19654;DHT22;9975;48.046;7.804;2023-09-30T14:57:13;27.00;30.90
19654;DHT22;9975;48.046;7.804;2023-09-30T14:59:41;26.90;30.20
19654;DHT22;9975;48.046;7.804;2023-09-30T15:02:07;27.00;30.30
19654;DHT22;9975;48.046;7.804;2023-09-30T15:04:36;27.10;30.10
19654;DHT22;9975;48.046;7.804;2023-09-30T15:07:02;26.90;31.60
19654;DHT22;9975;48.046;7.804;2023-09-30T15:09:28;26.90;34.10
19654;DHT22;9975;48.046;7.804;2023-09-30T15:11:54;27.00;30.30
19654;DHT22;9975;48.046;7.804;2023-09-30T15:14:19;26.70;31.30
19654;DHT22;9975;48.046;7.804;2023-09-30T15:16:45;26.60;30.90
19654;DHT22;9975;48.046;7.804;2023-09-30T15:19:11;26.40;31.00
19654;DHT22;9975;48.046;7.804;2023-09-30T15:21:36;26.50;31.40
19654;DHT22;9975;48.046;7.804;2023-09-30T15:24:03;26.50;31.10
19654;DHT22;9975;48.046;7.804;2023-09-30T15:26:30;26.30;30.90
19654;DHT22;9975;48.046;7.804;2023-09-30T15:28:56;26.10;31.30
19654;DHT22;9975;48.046;7.804;2023-09-30T15:31:29;26.00;31.50
19654;DHT22;9975;48.046;7.804;2023-09-30T15:33:58;26.00;32.10
19654;DHT22;9975;48.046;7.804;2023-09-30T15:36:24;25.90;31.60
19654;DHT22;9975;48.046;7.804;2023-09-30T15:38:51;25.90;32.70
19654;DHT22;9975;48.046;7.804;2023-09-30T15:41:20;25.90;31.90
19654;DHT22;9975;48.046;7.804;2023-09-30T15:43:49;25.80;32.10
19654;DHT22;9975;48.046;7.804;2023-09-30T15:46:14;25.70;31.90
19654;DHT22;9975;48.046;7.804;2023-09-30T15:48:40;25.60;32.20
19654;DHT22;9975;48.046;7.804;2023-09-30T15:51:06;25.40;32.00
19654;DHT22;9975;48.046;7.804;2023-09-30T15:53:31;25.30;32.50
19654;DHT22;9975;48.046;7.804;2023-09-30T15:55:59;25.30;32.70
19654;DHT22;9975;48.046;7.804;2023-09-30T15:58:25;25.20;32.80
19654;DHT22;9975;48.046;7.804;2023-09-30T16:00:51;25.20;33.50
19654;DHT22;9975;48.046;7.804;2023-09-30T16:03:17;25.00;33.90
19654;DHT22;9975;48.046;7.804;2023-09-30T16:05:42;24.80;34.90
19654;DHT22;9975;48.046;7.804;2023-09-30T16:08:09;24.60;35.30
19654;DHT22;9975;48.046;7.804;2023-09-30T16:10:35;24.50;35.70
19654;DHT22;9975;48.046;7.804;2023-09-30T16:13:02;24.40;35.90
19654;DHT22;9975;48.046;7.804;2023-09-30T16:15:28;24.20;35.90
19654;DHT22;9975;48.046;7.804;2023-09-30T16:17:54;24.10;36.60
19654;DHT22;9975;48.046;7.804;2023-09-30T16:20:20;23.90;36.90
19654;DHT22;9975;48.046;7.804;2023-09-30T16:22:51;23.70;38.30
19654;DHT22;9975;48.046;7.804;2023-09-30T16:25:16;23.70;41.00
19654;DHT22;9975;48.046;7.804;2023-09-30T16:27:43;23.80;43.60
19654;DHT22;9975;48.046;7.804;2023-09-30T16:30:09;23.70;45.10
19654;DHT22;9975;48.046;7.804;2023-09-30T16:32:35;23.70;46.10
19654;DHT22;9975;48.046;7.804;2023-09-30T16:35:04;23.60;47.30
19654;DHT22;9975;48.046;7.804;2023-09-30T16:37:30;23.50;47.00
19654;DHT22;9975;48.046;7.804;2023-09-30T16:39:55;23.30;47.40
19654;DHT22;9975;48.046;7.804;2023-09-30T16:42:21;23.20;47.80
19654;DHT22;9975;48.046;7.804;2023-09-30T16:44:47;23.00;49.20
19654;DHT22;9975;48.046;7.804;2023-09-30T16:47:12;23.00;50.30
19654;DHT22;9975;48.046;7.804;2023-09-30T16:49:38;22.80;50.80
19654;DHT22;9975;48.046;7.804;2023-09-30T16:52:04;22.60;52.10
19654;DHT22;9975;48.046;7.804;2023-09-30T16:54:30;22.50;52.80
19654;DHT22;9975;48.046;7.804;2023-09-30T16:56:56;22.40;54.00
19654;DHT22;9975;48.046;7.804;2023-09-30T16:59:23;22.20;55.00
19654;DHT22;9975;48.046;7.804;2023-09-30T17:01:49;22.10;56.40
19654;DHT22;9975;48.046;7.804;2023-09-30T17:04:15;22.00;57.50
19654;DHT22;9975;48.046;7.804;2023-09-30T17:06:41;21.90;58.40
19654;DHT22;9975;48.046;7.804;2023-09-30T17:09:07;21.70;59.00
19654;DHT22;9975;48.046;7.804;2023-09-30T17:11:33;21.60;59.50
19654;DHT22;9975;48.046;7.804;2023-09-30T17:13:58;21.40;60.00
19654;DHT22;9975;48.046;7.804;2023-09-30T17:16:24;21.30;61.70
19654;DHT22;9975;48.046;7.804;2023-09-30T17:18:50;21.10;63.40
19654;DHT22;9975;48.046;7.804;2023-09-30T17:21:16;20.90;64.90
19654;DHT22;9975;48.046;7.804;2023-09-30T17:23:42;20.80;66.40
19654;DHT22;9975;48.046;7.804;2023-09-30T17:26:08;20.50;66.80
19654;DHT22;9975;48.046;7.804;2023-09-30T17:28:35;20.50;68.10
19654;DHT22;9975;48.046;7.804;2023-09-30T17:31:05;20.40;67.70
19654;DHT22;9975;48.046;7.804;2023-09-30T17:33:34;20.30;69.80
19654;DHT22;9975;48.046;7.804;2023-09-30T17:36:01;20.10;72.30
19654;DHT22;9975;48.046;7.804;2023-09-30T17:38:28;20.00;74.00
19654;DHT22;9975;48.046;7.804;2023-09-30T17:40:59;19.90;75.80
19654;DHT22;9975;48.046;7.804;2023-09-30T17:43:25;19.80;76.70
19654;DHT22;9975;48.046;7.804;2023-09-30T17:45:50;19.60;77.00
19654;DHT22;9975;48.046;7.804;2023-09-30T17:48:16;19.50;77.70
19654;DHT22;9975;48.046;7.804;2023-09-30T17:50:43;19.30;79.60
19654;DHT22;9975;48.046;7.804;2023-09-30T17:53:09;19.10;81.60
19654;DHT22;9975;48.046;7.804;2023-09-30T17:55:38;19.10;84.60
19654;DHT22;9975;48.046;7.804;2023-09-30T17:58:03;19.10;86.00
19654;DHT22;9975;48.046;7.804;2023-09-30T18:00:29;19.00;85.80
19654;DHT22;9975;48.046;7.804;2023-09-30T18:02:55;18.90;89.20
19654;DHT22;9975;48.046;7.804;2023-09-30T18:05:24;18.70;89.60
19654;DHT22;9975;48.046;7.804;2023-09-30T18:07:50;18.50;91.40